首页
METAR-TAF:

METAR-TAF

机场 :

克里斯蒂亚诺·罗纳尔多机场

丰沙尔, 馬德拉群岛, 葡萄牙

纬度: 32-41-52N, 经度: 016-46-28W, 海拔: 59米

当前天气观测

该预报发布于39分钟前的10:30 UTC
风速8节,风向多变
温度 23°C
湿度 61%
气压 1021 hPa
能见度10公里或以上
少量云层高于1600英尺

METAR: LPMA 271030Z VRB08KT 9999 FEW016 23/15 Q1021

时间: 12:09 (11:09 UTC)

预报

该预报发布于6小时和9分钟前的05:00 UTC
预报有效从27日的 06点(UTC)到 28日的 06点(UTC)
风速8节,风向北转西北
能见度10公里或以上
散云层高于1500英尺
短暂存在
从 27日的 06点(UTC)到 27日的 08点(UTC)
风速5节,风向多变
几率 30%
从 27日的 12点(UTC)到 27日的 18点(UTC)
风速8节,风向南转西南

TAF: LPMA 270500Z 2706/2806 34008KT 9999 SCT015 TEMPO 2706/2708 VRB05KT PROB30 2712/2718 21008KT

超过4000个机场的气象观测和天气预报(METAR&TAF报告)。

可查询的气象台以黄色和红色小点在地图上表示。

将鼠标移到小点上方,可查看气象台名称。

然后点击查看天气观测和预报。

如需切换地图:点击带黑十字的绿色按钮放大地图;点击带横线的绿色按钮缩小地图;或者点击绿色箭头查看邻近地区的地图。


METAR-TAF: